createdAt,value
2022-10-18T00:00:45.692Z,15.6
2022-10-18T00:03:45.688Z,15.5
2022-10-18T00:06:45.734Z,15.4
2022-10-18T00:09:45.708Z,15.4
2022-10-18T00:15:45.714Z,15.3
2022-10-18T00:18:45.735Z,15.3
2022-10-18T00:21:45.759Z,15.2
2022-10-18T00:24:45.768Z,15.2
2022-10-18T00:27:45.750Z,15.2
2022-10-18T00:30:45.768Z,15.2
2022-10-18T00:33:45.767Z,15.1
2022-10-18T00:36:45.784Z,15.2
2022-10-18T00:39:45.846Z,15.2
2022-10-18T00:42:45.818Z,15.1
2022-10-18T00:45:45.793Z,15.1
2022-10-18T00:48:45.873Z,15.1
2022-10-18T00:51:45.827Z,15
2022-10-18T00:54:45.824Z,15
2022-10-18T00:57:45.886Z,15
2022-10-18T01:00:45.873Z,15
2022-10-18T01:03:45.849Z,14.9
2022-10-18T01:06:45.904Z,14.9
2022-10-18T01:09:45.875Z,14.9
2022-10-18T01:12:45.879Z,14.9
2022-10-18T01:15:45.888Z,14.9
2022-10-18T01:18:45.913Z,14.9
2022-10-18T01:21:45.904Z,14.9
2022-10-18T01:24:45.910Z,14.9
2022-10-18T01:27:45.912Z,14.9
2022-10-18T01:30:45.989Z,14.9
2022-10-18T01:33:45.933Z,14.8
2022-10-18T01:36:46.008Z,14.8
2022-10-18T01:39:45.953Z,14.8
2022-10-18T01:42:45.960Z,14.8
2022-10-18T01:45:45.972Z,14.8
2022-10-18T01:48:45.977Z,14.8
2022-10-18T01:51:46.003Z,14.8
2022-10-18T01:54:46.022Z,14.8
2022-10-18T01:57:46.004Z,14.8
2022-10-18T02:00:46.018Z,14.8
2022-10-18T02:03:46.031Z,14.8
2022-10-18T02:06:46.045Z,14.8
2022-10-18T02:09:46.049Z,14.7
2022-10-18T02:12:46.082Z,14.8
2022-10-18T02:15:46.066Z,14.8
2022-10-18T02:18:46.078Z,14.7
2022-10-18T02:21:46.106Z,14.7
2022-10-18T02:24:46.104Z,14.7
2022-10-18T02:27:46.097Z,14.7
2022-10-18T02:30:46.145Z,14.7
2022-10-18T02:33:46.127Z,14.7
2022-10-18T02:36:46.154Z,14.7
2022-10-18T02:39:46.147Z,14.7
2022-10-18T02:42:46.157Z,14.7
2022-10-18T02:45:46.172Z,14.7
2022-10-18T02:48:46.196Z,14.7
2022-10-18T02:51:46.199Z,14.6
2022-10-18T02:54:46.195Z,14.6
2022-10-18T02:57:46.209Z,14.6
2022-10-18T03:00:46.221Z,14.5
2022-10-18T03:03:46.225Z,14.5
2022-10-18T03:06:46.277Z,14.5
2022-10-18T03:09:46.401Z,14.5
2022-10-18T03:12:46.265Z,14.5
2022-10-18T03:15:46.272Z,14.5
2022-10-18T03:18:46.279Z,14.5
2022-10-18T03:21:46.299Z,14.5
2022-10-18T03:24:46.322Z,14.5
2022-10-18T03:27:46.308Z,14.4
2022-10-18T03:30:46.322Z,14.4
2022-10-18T03:33:46.329Z,14.4
2022-10-18T03:36:46.356Z,14.4
2022-10-18T03:39:46.345Z,14.4
2022-10-18T03:42:46.381Z,14.4
2022-10-18T03:45:46.368Z,14.3
2022-10-18T03:48:46.377Z,14.3
2022-10-18T03:51:46.401Z,14.3
2022-10-18T03:54:46.395Z,14.3
2022-10-18T03:57:46.402Z,14.3
2022-10-18T04:00:46.442Z,14.3
2022-10-18T04:03:46.420Z,14.3
2022-10-18T04:06:46.445Z,14.3
2022-10-18T04:09:46.435Z,14.4
2022-10-18T04:12:46.445Z,14.4
2022-10-18T04:15:46.455Z,14.5
2022-10-18T04:18:46.492Z,14.5
2022-10-18T04:21:46.500Z,14.5
2022-10-18T04:24:46.486Z,14.6
2022-10-18T04:27:46.490Z,14.6
2022-10-18T04:30:46.494Z,14.6
2022-10-18T04:33:46.512Z,14.6
2022-10-18T04:36:46.554Z,14.6
2022-10-18T04:39:48.544Z,14.6
2022-10-18T04:42:46.534Z,14.6
2022-10-18T04:45:46.539Z,14.7
2022-10-18T04:48:46.536Z,14.6
2022-10-18T04:51:46.557Z,14.6
2022-10-18T04:54:46.574Z,14.6
2022-10-18T04:57:46.554Z,14.6
2022-10-18T05:00:46.547Z,14.6
2022-10-18T05:03:46.554Z,14.5
2022-10-18T05:06:46.571Z,14.5
2022-10-18T05:09:46.569Z,14.5
2022-10-18T05:12:46.594Z,14.5
2022-10-18T05:15:46.579Z,14.5
2022-10-18T05:18:46.580Z,14.5
2022-10-18T05:21:46.588Z,14.5
2022-10-18T05:24:46.583Z,14.5
2022-10-18T05:27:46.579Z,14.5
2022-10-18T05:30:46.626Z,14.6
2022-10-18T05:33:46.596Z,14.6
2022-10-18T05:36:46.612Z,14.6
2022-10-18T05:39:46.601Z,14.6
2022-10-18T05:42:46.603Z,14.6
2022-10-18T05:45:46.606Z,14.6
2022-10-18T05:48:46.640Z,14.6
2022-10-18T05:51:46.620Z,14.6
2022-10-18T05:54:46.616Z,14.6
2022-10-18T05:57:46.615Z,14.6
2022-10-18T06:00:46.620Z,14.6
2022-10-18T06:03:46.624Z,14.7
2022-10-18T06:06:46.681Z,14.7
2022-10-18T06:09:46.633Z,14.7
2022-10-18T06:12:46.633Z,14.7
2022-10-18T06:15:46.638Z,14.7
2022-10-18T06:18:46.637Z,14.7
2022-10-18T06:21:46.645Z,14.7
2022-10-18T06:24:46.666Z,14.7
2022-10-18T06:27:46.645Z,14.8
2022-10-18T06:30:46.638Z,14.8
2022-10-18T06:33:46.650Z,14.8
2022-10-18T06:36:46.667Z,14.8
2022-10-18T06:39:46.658Z,14.8
2022-10-18T06:42:50.903Z,14.8
2022-10-18T06:45:46.660Z,14.8
2022-10-18T06:48:46.665Z,14.8
2022-10-18T06:51:46.681Z,14.8
2022-10-18T06:54:46.686Z,14.8
2022-10-18T06:57:46.696Z,14.8
2022-10-18T07:00:46.784Z,14.8
2022-10-18T07:03:46.809Z,14.8
2022-10-18T07:06:46.740Z,14.8
2022-10-18T07:09:46.745Z,14.8
2022-10-18T07:12:46.759Z,14.8
2022-10-18T07:15:46.763Z,14.8
2022-10-18T07:18:46.800Z,14.8
2022-10-18T07:21:46.799Z,14.8
2022-10-18T07:24:46.799Z,14.7
2022-10-18T07:27:46.821Z,14.7
2022-10-18T07:30:46.822Z,14.7
2022-10-18T07:33:46.829Z,14.7
2022-10-18T07:36:46.963Z,14.7
2022-10-18T07:39:46.862Z,14.7
2022-10-18T07:42:46.877Z,14.7
2022-10-18T07:45:46.901Z,14.7
2022-10-18T07:48:46.901Z,14.7
2022-10-18T07:51:46.937Z,14.7
2022-10-18T07:54:47.010Z,14.7
2022-10-18T07:57:46.943Z,14.7
2022-10-18T08:00:46.963Z,14.7
2022-10-18T08:03:46.978Z,14.8
2022-10-18T08:06:46.986Z,14.8
2022-10-18T08:09:46.993Z,14.9
2022-10-18T08:12:47.028Z,14.9
2022-10-18T08:15:47.025Z,15
2022-10-18T08:18:47.038Z,15.1
2022-10-18T08:21:47.049Z,15.2
2022-10-18T08:24:47.050Z,15.2
2022-10-18T08:27:47.075Z,15.2
2022-10-18T08:30:47.111Z,15.2
2022-10-18T08:33:47.100Z,15.1
2022-10-18T08:36:47.130Z,15
2022-10-18T08:39:47.138Z,15
2022-10-18T08:42:47.145Z,15
2022-10-18T08:45:47.162Z,15.1
2022-10-18T08:48:47.200Z,15.1
2022-10-18T08:51:47.198Z,15.1
2022-10-18T08:54:47.204Z,15.2
2022-10-18T08:57:47.214Z,15.3
2022-10-18T09:00:47.237Z,15.3
2022-10-18T09:03:47.301Z,15.3
2022-10-18T09:06:47.312Z,15.3
2022-10-18T09:09:47.284Z,15.3
2022-10-18T09:12:47.292Z,15.4
2022-10-18T09:15:47.304Z,15.4
2022-10-18T09:18:47.323Z,15.5
2022-10-18T09:21:47.346Z,15.4
2022-10-18T09:24:47.369Z,15.4
2022-10-18T09:27:47.361Z,15.6
2022-10-18T09:30:47.378Z,15.6
2022-10-18T09:33:47.387Z,15.6
2022-10-18T09:36:47.428Z,15.7
2022-10-18T09:39:47.416Z,15.7
2022-10-18T09:42:47.446Z,15.7
2022-10-18T09:45:47.468Z,15.7
2022-10-18T09:48:47.453Z,15.7
2022-10-18T09:51:47.470Z,15.6
2022-10-18T09:54:47.471Z,15.5
2022-10-18T09:57:47.488Z,15.4
2022-10-18T10:00:47.541Z,15.3
2022-10-18T10:03:47.544Z,15.3
2022-10-18T10:06:47.552Z,15.3
2022-10-18T10:09:47.621Z,15.3
2022-10-18T10:12:47.577Z,15.4
2022-10-18T10:15:47.589Z,15.5
2022-10-18T10:18:47.644Z,15.5
2022-10-18T10:21:47.631Z,15.5
2022-10-18T10:24:47.636Z,15.6
2022-10-18T10:27:47.649Z,15.6
2022-10-18T10:30:47.667Z,15.7
2022-10-18T10:33:47.690Z,15.7
2022-10-18T10:36:47.735Z,15.7
2022-10-18T10:39:55.401Z,15.8
2022-10-18T10:42:47.718Z,15.8
2022-10-18T10:45:47.731Z,15.6
2022-10-18T10:48:47.764Z,15.5
2022-10-18T10:51:50.676Z,15.3
2022-10-18T10:54:51.489Z,15
2022-10-18T10:57:47.781Z,15.2
2022-10-18T11:00:47.805Z,15.3
2022-10-18T11:03:47.838Z,15.2
2022-10-18T11:06:47.836Z,15.3
2022-10-18T11:09:47.837Z,15.5
2022-10-18T11:12:47.889Z,15.7
2022-10-18T11:15:47.883Z,15.7
2022-10-18T11:18:47.900Z,15.6
2022-10-18T11:21:47.916Z,15.6
2022-10-18T11:24:47.919Z,15.3
2022-10-18T11:27:47.931Z,14.9
2022-10-18T11:30:47.973Z,14.9
2022-10-18T11:34:08.002Z,14.9
2022-10-18T11:36:54.516Z,14.6
2022-10-18T11:39:47.963Z,14.5
2022-10-18T11:42:47.986Z,14.4
2022-10-18T11:45:47.999Z,14.1
2022-10-18T11:48:48.029Z,14
2022-10-18T11:52:07.066Z,14.2
2022-10-18T11:54:48.036Z,14.3
2022-10-18T11:57:48.053Z,14.3
2022-10-18T12:00:48.070Z,14.3
2022-10-18T12:03:48.083Z,14.1
2022-10-18T12:06:48.128Z,14.2
2022-10-18T12:12:48.134Z,14.3
2022-10-18T12:15:48.151Z,13.9
2022-10-18T12:18:48.199Z,13.8
2022-10-18T12:21:48.176Z,13.8
2022-10-18T12:24:48.204Z,13.9
2022-10-18T12:27:48.229Z,13.8
2022-10-18T12:30:48.213Z,13.7
2022-10-18T12:33:48.228Z,13.8
2022-10-18T12:36:48.240Z,14
2022-10-18T12:40:08.923Z,13.9
2022-10-18T12:42:48.303Z,14
2022-10-18T12:45:48.284Z,14.1
2022-10-18T12:48:48.306Z,14
2022-10-18T12:51:48.311Z,14
2022-10-18T12:54:48.328Z,13.8
2022-10-18T12:57:48.360Z,13.7
2022-10-18T13:00:48.402Z,13.3
2022-10-18T13:03:48.380Z,13.2
2022-10-18T13:06:48.393Z,13
2022-10-18T13:09:48.412Z,13.1
2022-10-18T13:12:48.428Z,12.9
2022-10-18T13:15:48.438Z,13
2022-10-18T13:18:48.466Z,12.9
2022-10-18T13:21:48.462Z,12.4
2022-10-18T13:24:48.488Z,12.4
2022-10-18T13:27:48.869Z,12.4
2022-10-18T13:30:48.521Z,12.3
2022-10-18T13:33:48.527Z,12.4
2022-10-18T13:36:48.569Z,12.3
2022-10-18T13:39:48.569Z,12.4
2022-10-18T13:42:48.779Z,12.4
2022-10-18T13:45:48.604Z,12.4
2022-10-18T13:48:48.616Z,12.2
2022-10-18T13:51:48.637Z,12.2
2022-10-18T13:54:48.679Z,12
2022-10-18T13:57:48.676Z,12
2022-10-18T14:00:48.985Z,11.7
2022-10-18T14:03:57.835Z,11.7
2022-10-18T14:06:48.713Z,11.5
2022-10-18T14:09:49.942Z,11.5
2022-10-18T14:12:48.768Z,11.4
2022-10-18T14:15:48.766Z,11.4
2022-10-18T14:18:48.787Z,11.2
2022-10-18T14:21:48.797Z,11.1
2022-10-18T14:24:48.807Z,10.4
2022-10-18T14:27:50.901Z,10.1
2022-10-18T14:30:48.876Z,10.1
2022-10-18T14:33:50.166Z,10.1
2022-10-18T14:36:48.899Z,10
2022-10-18T14:39:48.928Z,10
2022-10-18T14:42:48.939Z,9.6
2022-10-18T14:45:48.964Z,9.8
2022-10-18T14:48:49.001Z,10.1
2022-10-18T14:51:48.991Z,10.3
2022-10-18T14:54:49.021Z,10.3
2022-10-18T14:57:49.029Z,10.4
2022-10-18T15:00:49.043Z,10.4
2022-10-18T15:03:49.072Z,10.5
2022-10-18T15:06:49.109Z,10.6
2022-10-18T15:09:49.104Z,10.6
2022-10-18T15:13:08.533Z,10.7
2022-10-18T15:15:49.133Z,10.7
2022-10-18T15:18:49.153Z,10.7
2022-10-18T15:21:49.184Z,10.7
2022-10-18T15:24:49.227Z,10.7
2022-10-18T15:27:49.212Z,10.7
2022-10-18T15:30:49.240Z,10.7
2022-10-18T15:33:49.260Z,10.7
2022-10-18T15:36:49.284Z,10.7
2022-10-18T15:39:49.301Z,10.7
2022-10-18T15:42:49.349Z,10.7
2022-10-18T15:45:49.342Z,10.6
2022-10-18T15:48:49.359Z,10.6
2022-10-18T15:51:49.369Z,10.6
2022-10-18T15:54:49.409Z,10.6
2022-10-18T15:57:49.408Z,10.5
2022-10-18T16:00:49.450Z,10.5
2022-10-18T16:03:49.482Z,10.5
2022-10-18T16:06:49.456Z,10.4
2022-10-18T16:09:49.484Z,10.4
2022-10-18T16:12:49.545Z,10.3
2022-10-18T16:15:49.533Z,10.2
2022-10-18T16:18:49.580Z,10.2
2022-10-18T16:21:49.580Z,10.1
2022-10-18T16:24:49.590Z,10
2022-10-18T16:27:49.621Z,10
2022-10-18T16:30:49.641Z,9.9
2022-10-18T16:33:49.662Z,9.9
2022-10-18T16:36:49.703Z,9.9
2022-10-18T16:39:49.701Z,9.9
2022-10-18T16:42:49.712Z,9.8
2022-10-18T16:45:49.742Z,9.8
2022-10-18T16:48:49.759Z,9.8
2022-10-18T16:51:49.764Z,9.8
2022-10-18T16:54:49.798Z,9.8
2022-10-18T16:57:49.779Z,9.8
2022-10-18T17:00:49.781Z,9.8
2022-10-18T17:03:49.783Z,9.8
2022-10-18T17:06:49.789Z,9.9
2022-10-18T17:09:49.799Z,9.8
2022-10-18T17:12:49.824Z,9.8
2022-10-18T17:15:49.800Z,9.8
2022-10-18T17:18:49.802Z,9.8
2022-10-18T17:21:49.798Z,9.7
2022-10-18T17:24:49.811Z,9.7
2022-10-18T17:27:49.806Z,9.7
2022-10-18T17:30:49.825Z,9.6
2022-10-18T17:33:49.811Z,9.6
2022-10-18T17:36:49.817Z,9.5
2022-10-18T17:39:49.812Z,9.5
2022-10-18T17:42:49.814Z,9.5
2022-10-18T17:45:49.815Z,9.4
2022-10-18T17:48:49.831Z,9.4
2022-10-18T17:51:49.818Z,9.3
2022-10-18T17:54:49.815Z,9.2
2022-10-18T17:57:49.819Z,9.1
2022-10-18T18:00:49.829Z,9.1
2022-10-18T18:03:49.822Z,9.1
2022-10-18T18:06:49.843Z,9
2022-10-18T18:09:49.830Z,9
2022-10-18T18:12:49.825Z,9
2022-10-18T18:15:49.827Z,8.9
2022-10-18T18:18:49.830Z,8.9
2022-10-18T18:21:49.839Z,8.9
2022-10-18T18:24:49.864Z,8.9
2022-10-18T18:27:49.836Z,9
2022-10-18T18:30:49.833Z,9
2022-10-18T18:33:49.864Z,9
2022-10-18T18:36:49.844Z,8.9
2022-10-18T18:39:50.048Z,8.8
2022-10-18T18:43:01.556Z,8.7
2022-10-18T18:45:49.846Z,8.7
2022-10-18T18:48:49.847Z,8.5
2022-10-18T18:51:49.848Z,8.5
2022-10-18T18:54:49.854Z,8.4
2022-10-18T18:57:49.853Z,8.3
2022-10-18T19:00:49.915Z,8.3
2022-10-18T19:03:49.855Z,8.3
2022-10-18T19:06:49.857Z,8.2
2022-10-18T19:09:49.861Z,8.2
2022-10-18T19:12:49.862Z,8.2
2022-10-18T19:15:49.860Z,8.3
2022-10-18T19:18:49.894Z,8.2
2022-10-18T19:21:49.867Z,8.2
2022-10-18T19:24:49.870Z,8.3
2022-10-18T19:27:49.862Z,8.3
2022-10-18T19:30:50.009Z,8.4
2022-10-18T19:33:59.194Z,8.5
2022-10-18T19:36:49.919Z,8.5
2022-10-18T19:39:49.888Z,8.5
2022-10-18T19:42:49.875Z,8.6
2022-10-18T19:45:49.876Z,8.6
2022-10-18T19:48:49.881Z,8.7
2022-10-18T19:51:49.894Z,8.7
2022-10-18T19:54:49.904Z,8.8
2022-10-18T19:57:49.881Z,8.9
2022-10-18T20:00:49.884Z,8.9
2022-10-18T20:03:49.886Z,9
2022-10-18T20:06:49.891Z,9.1
2022-10-18T20:09:49.889Z,9.1
2022-10-18T20:12:49.957Z,9.1
2022-10-18T20:15:49.901Z,9.2
2022-10-18T20:18:49.902Z,9.2
2022-10-18T20:21:49.901Z,9.2
2022-10-18T20:24:49.905Z,9.2
2022-10-18T20:27:49.905Z,9.2
2022-10-18T20:30:49.941Z,9.2
2022-10-18T20:33:49.915Z,9.2
2022-10-18T20:36:49.923Z,9.3
2022-10-18T20:39:49.919Z,9.3
2022-10-18T20:42:49.919Z,9.3
2022-10-18T20:45:49.922Z,9.3
2022-10-18T20:48:49.948Z,9.4
2022-10-18T20:51:49.928Z,9.3
2022-10-18T20:54:49.928Z,9.3
2022-10-18T20:57:49.932Z,9.3
2022-10-18T21:00:49.931Z,9.3
2022-10-18T21:03:49.934Z,9.3
2022-10-18T21:06:49.961Z,9.3
2022-10-18T21:09:49.940Z,9.3
2022-10-18T21:12:49.944Z,9.3
2022-10-18T21:15:49.951Z,9.3
2022-10-18T21:18:49.963Z,9.3
2022-10-18T21:21:49.955Z,9.3
2022-10-18T21:24:49.990Z,9.3
2022-10-18T21:27:49.965Z,9.3
2022-10-18T21:30:49.966Z,9.3
2022-10-18T21:33:49.961Z,9.4
2022-10-18T21:36:49.974Z,9.4
2022-10-18T21:39:49.965Z,9.4
2022-10-18T21:42:49.991Z,9.4
2022-10-18T21:45:49.968Z,9.4
2022-10-18T21:48:49.971Z,9.4
2022-10-18T21:51:49.970Z,9.4
2022-10-18T21:54:49.971Z,9.4
2022-10-18T21:57:49.993Z,9.4
2022-10-18T22:00:50.054Z,9.4
2022-10-18T22:03:49.979Z,9.4
2022-10-18T22:06:49.982Z,9.4
2022-10-18T22:09:49.982Z,9.4
2022-10-18T22:12:49.987Z,9.4
2022-10-18T22:15:49.992Z,9.4
2022-10-18T22:18:50.023Z,9.4
2022-10-18T22:21:49.992Z,9.4
2022-10-18T22:24:49.994Z,9.4
2022-10-18T22:27:50.003Z,9.3
2022-10-18T22:30:49.994Z,9.3
2022-10-18T22:33:50.003Z,9.3
2022-10-18T22:36:50.032Z,9.2
2022-10-18T22:39:50.010Z,9.1
2022-10-18T22:42:50.026Z,9.1
2022-10-18T22:45:50.020Z,9
2022-10-18T22:48:50.014Z,9
2022-10-18T22:51:50.027Z,8.9
2022-10-18T22:54:50.054Z,8.9
2022-10-18T22:57:50.028Z,8.8
2022-10-18T23:00:50.040Z,8.8
2022-10-18T23:03:50.038Z,8.8
2022-10-18T23:06:50.043Z,8.8
2022-10-18T23:09:50.041Z,8.9
2022-10-18T23:12:50.069Z,8.9
2022-10-18T23:15:50.049Z,8.8
2022-10-18T23:18:50.057Z,8.8
2022-10-18T23:21:50.056Z,8.8
2022-10-18T23:24:50.070Z,8.7
2022-10-18T23:27:50.066Z,8.7
2022-10-18T23:30:50.101Z,8.7
2022-10-18T23:33:50.075Z,8.8
2022-10-18T23:36:50.083Z,8.8
2022-10-18T23:39:50.077Z,8.8
2022-10-18T23:42:50.082Z,8.7
2022-10-18T23:45:50.086Z,8.7
2022-10-18T23:48:50.109Z,8.8
2022-10-18T23:51:50.090Z,8.7
2022-10-18T23:54:50.134Z,8.7
2022-10-18T23:57:50.134Z,8.7
